Saint Maurice, Louisiana
Current Conditions -  °F | °C
As of 3:15 PM on Sunday 23 Nov 2014 (Local Time) from KIER Reporting Station
Clear Clear  
Wind Chill: 73°   Ceiling: Unl
Heat Index: 73°   Visibility: 10mi
Dew Point: 61°   Wind: 13mph
Humidity: 65%   Direction: 190°S
Pressure: 29.49"   Gusts: 21mph
Location:  31.76°N, 92.96°W
Report Text: KIER 232115Z AUTO 19011G18KT 10SM CLR 23/16 A2949 RMK AO2 T02290161
Loading
Personal Weather Stations






























Interactive Weather Map New forecast layout! Learn more

10-Day Weather Forecast

Advertisements
Track Severe Weather on mobile